KSEAOAJL

Guest
Details From KSEA - Seattle Tacoma Intl
To OAJL - Jalalabad
Flight Number -
Tags Real Decoded
Created
Modified
Stats Distance 6,568 nm / 12,164 km
Max Altitude 50,000 ft / 15,240 m
Waypoints 3
Social Downloads 1
Likes 0
Share VATSIM

Download

Looking for another format? Having issues loading an existing format? Contact us
Advertisement - Login to hide

Notes

Decoded

Route

KSEA TO OAJL

ID Type Via Altitude Latitude Longitude Leg Dist Tot Dist Heading (true) Name
O KSEA APT - 0 ft / 0 m 47.46383˚ -122.31786˚ - 0 nm - -
TO NDB - 50,000 ft / 15,240 m 63.43978˚ 10.68014˚ 3787 nm 3787 nm 22° / 146° MALVIK NDB
O OAJL APT - 0 ft / 0 m 34.40644˚ 70.48960˚ 2780 nm 6568 nm 99° / 148° -

Altitude Profile

Advertisement - Login to hide

Weather


0- 5 10 15 20 25 30 35+ Temperature / ° C

Clouds and Precipitation
Forecast for 2017-12-14 18:00 UTC. Updated 19 minutes ago

Ground ~20,000 ft ~40,000 ft Winds

KSEA

Details ICAO KSEA (SEA)
Name Seattle Tacoma Intl
Region United States
Timezone America/Los_Angeles (UTC-8.0)
Stats Elevation 433 ft / 132 m (AMSL)
Location 47.450188° -122.312320°
Runways 3
Magnetic Variation 15.685° E

METAR

KSEA 141253Z 03009KT 10SM SCT250 04/03 A3033 RMK AO2 SLP279 T00390028

Decode

TAF

KSEA 141123Z 1412/1518 03008KT P6SM SCT250 TEMPO 1414/1418 2SM BR SCT002 FM142000 07007KT P6SM BKN200 FM150300 VRB03KT P6SM BKN150 FM150800 16006KT P6SM SCT020 BKN040 BKN120 FM151500 18008KT P6SM -RA BKN020 OVC040

Decode

Departure Runways

ID Width Length Bearing (true) Bearing (mag) Surface Threshold Offset Overrun Length
16C 151 ft / 46 m 9,429 ft / 2,874 m 180.34° 164.66° Concrete 0 ft / 0 m 223 ft / 68 m
16L 151 ft / 46 m 11,904 ft / 3,628 m 180.34° 164.66° Concrete 0 ft / 0 m 151 ft / 46 m
16R 151 ft / 46 m 8,503 ft / 2,592 m 180.34° 164.66° Concrete 0 ft / 0 m 164 ft / 50 m
34C 151 ft / 46 m 9,429 ft / 2,874 m 0.34° 344.66° Concrete 0 ft / 0 m 394 ft / 120 m
34L 151 ft / 46 m 8,503 ft / 2,592 m 0.34° 344.66° Concrete 0 ft / 0 m 394 ft / 120 m
34R 151 ft / 46 m 11,904 ft / 3,628 m 0.34° 344.66° Concrete 0 ft / 0 m 400 ft / 122 m

OAJL

Details ICAO OAJL (JAA)
Name JALALABAD
Region Afghanistan
Timezone Asia/Kabul (UTC+4.5)
Stats Elevation 1,814 ft / 553 m (AMSL)
Location 34.399840° 70.498625°
Runways 1
Magnetic Variation 3.023° E

METAR

OAJL 141255Z 34002KT 5000 BR BKN120 OVC130 10/07 A3022 RMK AO2A SLP237 T00980066

Decode

TAF

TAF AMD OAJL 141245Z 1412/1514 31009KT 5000 -RA BKN055 BKN100 620606 QNH3021INS BECMG 1416/1417 VRB06KT 9000 -SHRA BKN050 620606 QNH3025INS BECMG 1420/1421 VRB06KT 9999 NSW BKN050 620801 BECMG 1505/1506 31009KT 9999 BKN060 QNH3026INS TX11/1508Z TN06/1501Z

Decode

Destination Runways

ID Width Length Bearing (true) Bearing (mag) Surface Threshold Offset Overrun Length
13 148 ft / 45 m 7,263 ft / 2,214 m 131.57° 128.55° Asphalt 0 ft / 0 m 0 ft / 0 m
31 148 ft / 45 m 7,263 ft / 2,214 m 311.58° 308.56° Asphalt 0 ft / 0 m 0 ft / 0 m